Terminal Aerodrome Forecast
Issued by NWS

Home | Current Version | Previous Version | Text Only | Print | Product List | Glossary On
Versions: 1 2 3 4 5 6 7 8 9 10 11 12 13 14 15
000
FTUS43 KTOP 071720
TAFMHK
TAF
KMHK 071720Z 0718/0818 03012G23KT P6SM SCT020 SCT050
     FM081000 04003KT P6SM VCSH OVC025
     FM081200 04005KT 3SM BR VCSH OVC015=

USA.gov is the U.S. government's official web portal to all federal, state and local government web resources and services.